sensor_id;sensor_type;location;lat;lon;timestamp;pressure;altitude;pressure_sealevel;temperature;humidity
48644;BME280;34928;37.302;-121.984;2023-02-14T00:09:37;100598.0;;;27.36;23.78
48644;BME280;34928;37.302;-121.984;2023-02-14T00:19:43;100606.0;;;27.59;23.74
48644;BME280;34928;37.302;-121.984;2023-02-14T00:29:47;100615.0;;;27.47;23.63
48644;BME280;34928;37.302;-121.984;2023-02-14T00:39:53;100628.0;;;27.76;23.68
48644;BME280;34928;37.302;-121.984;2023-02-14T00:49:57;100637.0;;;27.81;23.58
48644;BME280;34928;37.302;-121.984;2023-02-14T01:00:03;100645.0;;;27.38;23.42
48644;BME280;34928;37.302;-121.984;2023-02-14T01:10:08;100633.0;;;27.74;23.48
48644;BME280;34928;37.302;-121.984;2023-02-14T01:20:13;100638.0;;;27.47;23.46
48644;BME280;34928;37.302;-121.984;2023-02-14T01:30:18;100647.0;;;27.71;23.33
48644;BME280;34928;37.302;-121.984;2023-02-14T01:40:22;100642.0;;;27.50;23.13
48644;BME280;34928;37.302;-121.984;2023-02-14T01:50:30;100643.0;;;27.73;23.08
48644;BME280;34928;37.302;-121.984;2023-02-14T02:00:38;100655.0;;;27.47;22.97
48644;BME280;34928;37.302;-121.984;2023-02-14T02:10:43;100672.0;;;27.65;22.89
48644;BME280;34928;37.302;-121.984;2023-02-14T02:31:24;100686.0;;;27.64;22.34
48644;BME280;34928;37.302;-121.984;2023-02-14T02:41:50;100711.0;;;27.44;22.15
48644;BME280;34928;37.302;-121.984;2023-02-14T02:52:06;100717.0;;;27.71;22.36
48644;BME280;34928;37.302;-121.984;2023-02-14T03:02:15;100729.0;;;27.30;22.63
48644;BME280;34928;37.302;-121.984;2023-02-14T03:22:56;100737.0;;;27.62;23.38
48644;BME280;34928;37.302;-121.984;2023-02-14T03:33:12;100745.0;;;27.29;23.48
48644;BME280;34928;37.302;-121.984;2023-02-14T03:43:22;100752.0;;;27.64;23.14
48644;BME280;34928;37.302;-121.984;2023-02-14T03:53:30;100749.0;;;27.74;22.91
48644;BME280;34928;37.302;-121.984;2023-02-14T04:03:39;100753.0;;;27.55;22.82
48644;BME280;34928;37.302;-121.984;2023-02-14T04:13:47;100756.0;;;27.54;22.41
48644;BME280;34928;37.302;-121.984;2023-02-14T04:23:52;100787.0;;;27.71;22.19
48644;BME280;34928;37.302;-121.984;2023-02-14T04:33:57;100792.0;;;27.46;22.03
48644;BME280;34928;37.302;-121.984;2023-02-14T04:44:03;100812.0;;;27.73;22.08
48644;BME280;34928;37.302;-121.984;2023-02-14T04:54:07;100826.0;;;27.29;21.72
48644;BME280;34928;37.302;-121.984;2023-02-14T05:04:12;100844.0;;;27.69;21.58
48644;BME280;34928;37.302;-121.984;2023-02-14T05:14:22;100870.0;;;27.26;21.76
48644;BME280;34928;37.302;-121.984;2023-02-14T05:24:27;100865.0;;;27.69;21.63
48644;BME280;34928;37.302;-121.984;2023-02-14T05:34:32;100866.0;;;27.42;21.63
48644;BME280;34928;37.302;-121.984;2023-02-14T05:44:38;100860.0;;;27.13;22.05
48644;BME280;34928;37.302;-121.984;2023-02-14T05:54:42;100861.0;;;27.44;22.00
48644;BME280;34928;37.302;-121.984;2023-02-14T06:04:48;100880.0;;;27.45;22.06
48644;BME280;34928;37.302;-121.984;2023-02-14T06:14:53;100900.0;;;27.42;21.93
48644;BME280;34928;37.302;-121.984;2023-02-14T06:24:57;100918.0;;;27.59;21.78
48644;BME280;34928;37.302;-121.984;2023-02-14T06:35:02;100938.0;;;27.45;21.73
48644;BME280;34928;37.302;-121.984;2023-02-14T06:45:08;100933.0;;;27.39;21.68
48644;BME280;34928;37.302;-121.984;2023-02-14T06:55:12;100943.0;;;27.27;21.63
48644;BME280;34928;37.302;-121.984;2023-02-14T07:05:31;100948.0;;;27.06;21.75
48644;BME280;34928;37.302;-121.984;2023-02-14T07:15:38;100950.0;;;27.11;21.52
48644;BME280;34928;37.302;-121.984;2023-02-14T07:25:43;100958.0;;;27.02;21.51
48644;BME280;34928;37.302;-121.984;2023-02-14T07:35:47;100962.0;;;26.92;21.50
48644;BME280;34928;37.302;-121.984;2023-02-14T07:45:52;100967.0;;;26.59;21.54
48644;BME280;34928;37.302;-121.984;2023-02-14T07:55:57;100964.0;;;26.88;21.44
48644;BME280;34928;37.302;-121.984;2023-02-14T08:06:02;100965.0;;;26.45;21.28
48644;BME280;34928;37.302;-121.984;2023-02-14T08:16:07;100968.0;;;26.65;21.35
48644;BME280;34928;37.302;-121.984;2023-02-14T08:26:12;100973.0;;;26.56;21.20
48644;BME280;34928;37.302;-121.984;2023-02-14T08:36:18;100988.0;;;26.24;21.12
48644;BME280;34928;37.302;-121.984;2023-02-14T08:46:23;100985.0;;;26.10;21.09
48644;BME280;34928;37.302;-121.984;2023-02-14T08:56:28;100981.0;;;26.29;21.05
48644;BME280;34928;37.302;-121.984;2023-02-14T09:06:32;100965.0;;;26.29;21.34
48644;BME280;34928;37.302;-121.984;2023-02-14T09:16:42;100963.0;;;26.25;21.47
48644;BME280;34928;37.302;-121.984;2023-02-14T09:26:47;100972.0;;;26.13;21.55
48644;BME280;34928;37.302;-121.984;2023-02-14T09:36:53;100967.0;;;26.02;21.53
48644;BME280;34928;37.302;-121.984;2023-02-14T09:47:04;100981.0;;;25.92;21.58
48644;BME280;34928;37.302;-121.984;2023-02-14T09:57:19;100997.0;;;25.78;21.66
48644;BME280;34928;37.302;-121.984;2023-02-14T10:07:31;101016.0;;;25.65;21.66
48644;BME280;34928;37.302;-121.984;2023-02-14T10:17:41;101020.0;;;25.54;21.69
48644;BME280;34928;37.302;-121.984;2023-02-14T10:27:47;101023.0;;;25.45;21.69
48644;BME280;34928;37.302;-121.984;2023-02-14T10:38:01;101031.0;;;25.31;21.69
48644;BME280;34928;37.302;-121.984;2023-02-14T10:48:16;101020.0;;;25.07;21.80
48644;BME280;34928;37.302;-121.984;2023-02-14T10:58:25;101026.0;;;25.11;21.65
48644;BME280;34928;37.302;-121.984;2023-02-14T11:08:32;101027.0;;;25.00;21.57
48644;BME280;34928;37.302;-121.984;2023-02-14T11:18:43;101019.0;;;25.29;21.64
48644;BME280;34928;37.302;-121.984;2023-02-14T11:28:52;101024.0;;;25.22;21.77
48644;BME280;34928;37.302;-121.984;2023-02-14T11:39:04;101031.0;;;24.90;21.76
48644;BME280;34928;37.302;-121.984;2023-02-14T11:49:23;101050.0;;;24.99;21.80
48644;BME280;34928;37.302;-121.984;2023-02-14T11:59:31;101061.0;;;24.78;21.94
48644;BME280;34928;37.302;-121.984;2023-02-14T12:09:37;101063.0;;;24.79;21.82
48644;BME280;34928;37.302;-121.984;2023-02-14T12:19:48;101081.0;;;24.67;21.79
48644;BME280;34928;37.302;-121.984;2023-02-14T12:29:56;101077.0;;;24.56;21.59
48644;BME280;34928;37.302;-121.984;2023-02-14T12:40:11;101080.0;;;24.46;21.58
48644;BME280;34928;37.302;-121.984;2023-02-14T12:50:28;101091.0;;;24.33;21.69
48644;BME280;34928;37.302;-121.984;2023-02-14T13:00:45;101107.0;;;24.23;21.53
48644;BME280;34928;37.302;-121.984;2023-02-14T13:10:57;101109.0;;;24.07;21.51
48644;BME280;34928;37.302;-121.984;2023-02-14T13:21:05;101132.0;;;24.21;21.41
48644;BME280;34928;37.302;-121.984;2023-02-14T13:31:13;101147.0;;;24.08;21.40
48644;BME280;34928;37.302;-121.984;2023-02-14T13:41:18;101149.0;;;23.76;21.45
48644;BME280;34928;37.302;-121.984;2023-02-14T14:01:43;101141.0;;;24.74;21.06
48644;BME280;34928;37.302;-121.984;2023-02-14T14:11:49;101141.0;;;24.57;21.12
48644;BME280;34928;37.302;-121.984;2023-02-14T14:22:02;101145.0;;;25.03;20.85
48644;BME280;34928;37.302;-121.984;2023-02-14T14:32:09;101136.0;;;25.47;20.87
48644;BME280;34928;37.302;-121.984;2023-02-14T14:42:14;101136.0;;;25.28;20.74
48644;BME280;34928;37.302;-121.984;2023-02-14T14:52:31;101149.0;;;25.56;20.60
48644;BME280;34928;37.302;-121.984;2023-02-14T15:02:38;101144.0;;;25.82;20.46
48644;BME280;34928;37.302;-121.984;2023-02-14T15:12:42;101160.0;;;26.16;20.38
48644;BME280;34928;37.302;-121.984;2023-02-14T15:22:49;101176.0;;;26.08;20.33
48644;BME280;34928;37.302;-121.984;2023-02-14T15:32:58;101194.0;;;26.49;19.90
48644;BME280;34928;37.302;-121.984;2023-02-14T15:43:18;101196.0;;;26.48;20.12
48644;BME280;34928;37.302;-121.984;2023-02-14T15:53:35;101214.0;;;26.52;19.90
48644;BME280;34928;37.302;-121.984;2023-02-14T16:03:49;101230.0;;;26.37;19.75
48644;BME280;34928;37.302;-121.984;2023-02-14T16:13:57;101255.0;;;26.21;19.60
48644;BME280;34928;37.302;-121.984;2023-02-14T16:34:23;101251.0;;;26.18;19.29
48644;BME280;34928;37.302;-121.984;2023-02-14T16:44:27;101252.0;;;26.06;19.18
48644;BME280;34928;37.302;-121.984;2023-02-14T16:54:32;101250.0;;;26.07;18.96
48644;BME280;34928;37.302;-121.984;2023-02-14T17:04:37;101256.0;;;25.99;19.01
48644;BME280;34928;37.302;-121.984;2023-02-14T17:14:44;101241.0;;;25.82;18.92
48644;BME280;34928;37.302;-121.984;2023-02-14T17:24:52;101245.0;;;26.01;18.77
48644;BME280;34928;37.302;-121.984;2023-02-14T17:34:57;101257.0;;;25.57;18.70
48644;BME280;34928;37.302;-121.984;2023-02-14T17:45:04;101263.0;;;25.53;18.54
48644;BME280;34928;37.302;-121.984;2023-02-14T17:55:08;101256.0;;;25.56;18.44
48644;BME280;34928;37.302;-121.984;2023-02-14T18:05:13;101253.0;;;25.42;18.46
48644;BME280;34928;37.302;-121.984;2023-02-14T18:15:17;101252.0;;;25.39;18.32
48644;BME280;34928;37.302;-121.984;2023-02-14T18:25:22;101246.0;;;25.22;18.36
48644;BME280;34928;37.302;-121.984;2023-02-14T18:35:28;101243.0;;;25.51;18.29
48644;BME280;34928;37.302;-121.984;2023-02-14T18:45:35;101232.0;;;25.49;18.23
48644;BME280;34928;37.302;-121.984;2023-02-14T18:55:43;101213.0;;;25.23;18.13
48644;BME280;34928;37.302;-121.984;2023-02-14T19:05:47;101214.0;;;25.17;18.14
48644;BME280;34928;37.302;-121.984;2023-02-14T19:15:52;101216.0;;;25.10;18.04
48644;BME280;34928;37.302;-121.984;2023-02-14T19:25:57;101233.0;;;25.07;17.93
48644;BME280;34928;37.302;-121.984;2023-02-14T19:36:03;101205.0;;;25.00;17.77
48644;BME280;34928;37.302;-121.984;2023-02-14T19:46:07;101175.0;;;25.27;17.72
48644;BME280;34928;37.302;-121.984;2023-02-14T19:56:16;101163.0;;;25.44;17.66
48644;BME280;34928;37.302;-121.984;2023-02-14T20:06:23;101128.0;;;24.93;17.65
48644;BME280;34928;37.302;-121.984;2023-02-14T20:16:29;101115.0;;;25.19;17.82
48644;BME280;34928;37.302;-121.984;2023-02-14T20:26:38;101106.0;;;25.21;17.70
48644;BME280;34928;37.302;-121.984;2023-02-14T20:36:43;101101.0;;;25.14;17.74
48644;BME280;34928;37.302;-121.984;2023-02-14T20:46:49;101074.0;;;25.12;17.67
48644;BME280;34928;37.302;-121.984;2023-02-14T20:56:53;101066.0;;;25.25;17.68
48644;BME280;34928;37.302;-121.984;2023-02-14T21:06:58;101043.0;;;25.11;17.63
48644;BME280;34928;37.302;-121.984;2023-02-14T21:17:02;101033.0;;;25.22;17.75
48644;BME280;34928;37.302;-121.984;2023-02-14T21:27:07;101016.0;;;24.98;17.78
48644;BME280;34928;37.302;-121.984;2023-02-14T21:37:12;101005.0;;;24.95;17.86
48644;BME280;34928;37.302;-121.984;2023-02-14T21:47:18;100998.0;;;25.23;17.88
48644;BME280;34928;37.302;-121.984;2023-02-14T21:57:23;100972.0;;;25.18;17.99
48644;BME280;34928;37.302;-121.984;2023-02-14T22:07:27;100973.0;;;25.14;18.01
48644;BME280;34928;37.302;-121.984;2023-02-14T22:17:32;100964.0;;;25.16;18.04
48644;BME280;34928;37.302;-121.984;2023-02-14T22:27:38;100951.0;;;25.06;18.16
48644;BME280;34928;37.302;-121.984;2023-02-14T22:37:42;100928.0;;;25.02;18.25
48644;BME280;34928;37.302;-121.984;2023-02-14T22:47:47;100945.0;;;24.76;18.30
48644;BME280;34928;37.302;-121.984;2023-02-14T22:57:52;100929.0;;;24.72;18.39
48644;BME280;34928;37.302;-121.984;2023-02-14T23:07:57;100923.0;;;24.65;18.47
48644;BME280;34928;37.302;-121.984;2023-02-14T23:18:02;100894.0;;;24.65;18.49
48644;BME280;34928;37.302;-121.984;2023-02-14T23:28:07;100889.0;;;25.08;18.47
48644;BME280;34928;37.302;-121.984;2023-02-14T23:38:12;100871.0;;;24.85;18.57
48644;BME280;34928;37.302;-121.984;2023-02-14T23:48:17;100851.0;;;24.79;18.61
48644;BME280;34928;37.302;-121.984;2023-02-14T23:58:23;100820.0;;;24.70;18.73
